Air Quality Table

TIMESTAMP NO2 SO2 O3 PM10 PM2.5 TEMP HUM WS WD NO
2022-06-28 15:00 1.5 µg/m3 0.26 µg/m3 71.98 µg/m3 N/A N/A 35.12 °C 17.59 % 3.65 m/s 155.69 Deg 0.2 µg/m3
2022-06-28 14:00 1.27 µg/m3 0.29 µg/m3 62.81 µg/m3 N/A N/A 34.49 °C 19.17 % 4.22 m/s 173.27 Deg 0.2 µg/m3
2022-06-28 13:00 1 µg/m3 0.54 µg/m3 62.4 µg/m3 N/A N/A 33.55 °C 20.13 % 4.26 m/s 130.51 Deg 0.16 µg/m3
2022-06-28 12:00 1.05 µg/m3 0.66 µg/m3 61.77 µg/m3 N/A N/A 33.55 °C 20.27 % 3.7 m/s 126.68 Deg 0.21 µg/m3
2022-06-28 11:00 0.68 µg/m3 0.41 µg/m3 61.16 µg/m3 N/A N/A 33.02 °C 19.4 % 3.31 m/s 100.85 Deg 0.16 µg/m3
2022-06-28 10:00 0.53 µg/m3 0.34 µg/m3 62.63 µg/m3 N/A N/A 32.24 °C 20.19 % 4.11 m/s 110.59 Deg 0.12 µg/m3
2022-06-28 09:00 2.02 µg/m3 0.4 µg/m3 62.29 µg/m3 N/A N/A 32.09 °C 21.89 % 2.57 m/s 94.35 Deg 0.48 µg/m3
2022-06-28 08:00 2.03 µg/m3 0.56 µg/m3 60.07 µg/m3 N/A N/A 30.55 °C 29.13 % 3.89 m/s 117.43 Deg 0.47 µg/m3
2022-06-28 07:00 3.93 µg/m3 0.9 µg/m3 54.75 µg/m3 N/A N/A 29.1 °C 39.27 % 3.31 m/s 77.92 Deg 0.56 µg/m3
2022-06-28 06:00 5.19 µg/m3 0.57 µg/m3 49.52 µg/m3 N/A N/A 28.47 °C 38.71 % 2.59 m/s 107.53 Deg 0.28 µg/m3
2022-06-28 05:00 0.68 µg/m3 0.65 µg/m3 55.47 µg/m3 N/A N/A 28.3 °C 38.62 % 3.41 m/s 71.27 Deg 0.06 µg/m3
2022-06-28 04:00 2.87 µg/m3 1.07 µg/m3 53.85 µg/m3 N/A N/A 27.64 °C 46.54 % 1.75 m/s 242.13 Deg 0.07 µg/m3
2022-06-28 03:00 1.12 µg/m3 1.17 µg/m3 58.43 µg/m3 N/A N/A 27.95 °C 42.24 % 2.36 m/s 77.04 Deg 0.07 µg/m3
2022-06-28 02:00 0.1 µg/m3 1.87 µg/m3 62.45 µg/m3 N/A N/A 28.63 °C 38.17 % 2.3 m/s 110.98 Deg 0.05 µg/m3
2022-06-28 01:00 0.11 µg/m3 2.4 µg/m3 63.14 µg/m3 N/A N/A 28.66 °C 38.18 % 4.04 m/s 95.69 Deg 0.06 µg/m3
2022-06-28 00:00 0.32 µg/m3 3.11 µg/m3 65.68 µg/m3 N/A N/A 29.4 °C 32.65 % 5.39 m/s 103.76 Deg 0.05 µg/m3
2022-06-27 23:00 0.53 µg/m3 4.77 µg/m3 71.37 µg/m3 N/A N/A 30.34 °C 25.75 % 5.97 m/s 57.07 Deg 0.05 µg/m3
2022-06-27 22:00 0.49 µg/m3 3.52 µg/m3 79.8 µg/m3 N/A N/A 30.56 °C 25.81 % 5.24 m/s 72.63 Deg 0.06 µg/m3
2022-06-27 21:00 3.77 µg/m3 2.45 µg/m3 72.55 µg/m3 N/A N/A 30.36 °C 36.47 % 4.85 m/s 101.46 Deg 0.07 µg/m3
2022-06-27 20:00 1.83 µg/m3 2.64 µg/m3 74.23 µg/m3 N/A N/A 30.46 °C 34.16 % 2.91 m/s 99.57 Deg 0.07 µg/m3
2022-06-27 19:00 1.64 µg/m3 3.17 µg/m3 74.68 µg/m3 N/A N/A 31.67 °C 29.87 % 3.25 m/s 55.09 Deg 0.12 µg/m3
2022-06-27 18:00 1.39 µg/m3 3.27 µg/m3 74.72 µg/m3 N/A N/A 32.56 °C 28.14 % 3.52 m/s 81.27 Deg 0.15 µg/m3

It is to be noted that the data is provisional and subject to quality assurance procedures. For validated data kindly refer your request to contact.air@era.org.mt